sensor_id;sensor_type;location;lat;lon;timestamp;temperature;humidity
15481;DHT22;7842;50.904;6.670;2023-05-10T03:21:25;13.60;99.90
15481;DHT22;7842;50.904;6.670;2023-05-10T03:46:02;13.60;99.90
15481;DHT22;7842;50.904;6.670;2023-05-10T06:27:05;13.70;99.90
15481;DHT22;7842;50.904;6.670;2023-05-10T07:11:06;13.90;99.90
15481;DHT22;7842;50.904;6.670;2023-05-10T10:12:17;14.60;99.90
15481;DHT22;7842;50.904;6.670;2023-05-10T10:22:01;14.80;99.90
15481;DHT22;7842;50.904;6.670;2023-05-10T15:40:49;17.20;99.90
15481;DHT22;7842;50.904;6.670;2023-05-10T15:45:41;17.20;99.90
15481;DHT22;7842;50.904;6.670;2023-05-10T15:48:07;17.00;99.90
15481;DHT22;7842;50.904;6.670;2023-05-10T15:50:32;16.90;99.90
15481;DHT22;7842;50.904;6.670;2023-05-10T15:52:58;17.40;99.90
15481;DHT22;7842;50.904;6.670;2023-05-10T15:55:25;16.90;99.90
15481;DHT22;7842;50.904;6.670;2023-05-10T15:57:51;17.00;99.90
15481;DHT22;7842;50.904;6.670;2023-05-10T16:00:16;17.00;99.90
15481;DHT22;7842;50.904;6.670;2023-05-10T16:02:42;17.00;99.90
15481;DHT22;7842;50.904;6.670;2023-05-10T16:05:08;17.00;99.90
15481;DHT22;7842;50.904;6.670;2023-05-10T16:07:34;17.10;99.90
15481;DHT22;7842;50.904;6.670;2023-05-10T16:31:58;17.10;99.90
15481;DHT22;7842;50.904;6.670;2023-05-10T16:34:26;17.00;99.90
15481;DHT22;7842;50.904;6.670;2023-05-10T16:36:52;17.00;99.90
15481;DHT22;7842;50.904;6.670;2023-05-10T16:39:17;16.90;99.90
15481;DHT22;7842;50.904;6.670;2023-05-10T16:41:43;16.90;99.90
15481;DHT22;7842;50.904;6.670;2023-05-10T16:44:09;19.70;99.90
15481;DHT22;7842;50.904;6.670;2023-05-10T16:46:37;17.20;99.90
15481;DHT22;7842;50.904;6.670;2023-05-10T16:49:02;17.10;99.90
15481;DHT22;7842;50.904;6.670;2023-05-10T16:51:28;17.00;99.90
15481;DHT22;7842;50.904;6.670;2023-05-10T16:53:54;17.00;99.90
15481;DHT22;7842;50.904;6.670;2023-05-10T16:56:20;16.90;99.90
15481;DHT22;7842;50.904;6.670;2023-05-10T16:58:46;16.80;99.90
15481;DHT22;7842;50.904;6.670;2023-05-10T17:01:18;16.70;99.90
15481;DHT22;7842;50.904;6.670;2023-05-10T17:03:43;17.50;99.90
15481;DHT22;7842;50.904;6.670;2023-05-10T17:06:10;16.60;99.90
15481;DHT22;7842;50.904;6.670;2023-05-10T17:08:36;16.50;99.90
15481;DHT22;7842;50.904;6.670;2023-05-10T17:11:03;16.50;99.90
15481;DHT22;7842;50.904;6.670;2023-05-10T17:13:29;18.30;99.90
15481;DHT22;7842;50.904;6.670;2023-05-10T17:15:54;17.50;99.90
15481;DHT22;7842;50.904;6.670;2023-05-10T17:18:20;18.30;99.90
15481;DHT22;7842;50.904;6.670;2023-05-10T17:20:46;16.20;99.90
15481;DHT22;7842;50.904;6.670;2023-05-10T17:23:11;16.20;99.90
15481;DHT22;7842;50.904;6.670;2023-05-10T17:25:37;16.20;99.90
15481;DHT22;7842;50.904;6.670;2023-05-10T17:30:29;16.30;99.90
15481;DHT22;7842;50.904;6.670;2023-05-10T17:33:00;16.30;99.90
15481;DHT22;7842;50.904;6.670;2023-05-10T17:35:26;16.30;99.90
15481;DHT22;7842;50.904;6.670;2023-05-10T17:37:52;16.30;99.90
15481;DHT22;7842;50.904;6.670;2023-05-10T17:40:18;16.30;99.90
15481;DHT22;7842;50.904;6.670;2023-05-10T17:42:44;16.30;99.90
15481;DHT22;7842;50.904;6.670;2023-05-10T17:45:10;16.30;99.90
15481;DHT22;7842;50.904;6.670;2023-05-10T17:47:36;16.30;99.90
15481;DHT22;7842;50.904;6.670;2023-05-10T17:50:02;18.20;99.90
15481;DHT22;7842;50.904;6.670;2023-05-10T17:52:28;16.20;99.90
15481;DHT22;7842;50.904;6.670;2023-05-10T17:54:54;16.10;99.90
15481;DHT22;7842;50.904;6.670;2023-05-10T17:57:19;16.00;99.90
15481;DHT22;7842;50.904;6.670;2023-05-10T17:59:46;16.00;99.90
15481;DHT22;7842;50.904;6.670;2023-05-10T18:02:12;16.00;99.90
15481;DHT22;7842;50.904;6.670;2023-05-10T18:04:39;16.00;99.90
15481;DHT22;7842;50.904;6.670;2023-05-10T18:07:05;16.00;99.90
15481;DHT22;7842;50.904;6.670;2023-05-10T18:09:30;16.00;99.90
15481;DHT22;7842;50.904;6.670;2023-05-10T18:11:58;16.50;99.90
15481;DHT22;7842;50.904;6.670;2023-05-10T18:14:25;16.00;99.90
15481;DHT22;7842;50.904;6.670;2023-05-10T18:16:54;15.90;99.90
15481;DHT22;7842;50.904;6.670;2023-05-10T18:19:20;15.90;99.90
15481;DHT22;7842;50.904;6.670;2023-05-10T18:21:51;15.80;99.90
15481;DHT22;7842;50.904;6.670;2023-05-10T18:24:20;15.80;99.90
15481;DHT22;7842;50.904;6.670;2023-05-10T18:26:46;15.70;99.90
15481;DHT22;7842;50.904;6.670;2023-05-10T18:29:12;15.70;99.90
15481;DHT22;7842;50.904;6.670;2023-05-10T18:31:37;15.60;99.90
15481;DHT22;7842;50.904;6.670;2023-05-10T18:34:03;15.60;99.90
15481;DHT22;7842;50.904;6.670;2023-05-10T18:36:30;15.60;99.90
15481;DHT22;7842;50.904;6.670;2023-05-10T18:38:56;15.50;99.90
15481;DHT22;7842;50.904;6.670;2023-05-10T18:41:22;15.50;99.90
15481;DHT22;7842;50.904;6.670;2023-05-10T18:43:51;15.50;99.90
15481;DHT22;7842;50.904;6.670;2023-05-10T18:46:17;15.40;99.90
15481;DHT22;7842;50.904;6.670;2023-05-10T18:48:42;15.50;99.90
15481;DHT22;7842;50.904;6.670;2023-05-10T18:51:08;16.00;99.90
15481;DHT22;7842;50.904;6.670;2023-05-10T18:53:34;15.40;99.90
15481;DHT22;7842;50.904;6.670;2023-05-10T18:56:00;15.40;99.90
15481;DHT22;7842;50.904;6.670;2023-05-10T18:58:27;15.30;99.90
15481;DHT22;7842;50.904;6.670;2023-05-10T19:00:53;16.70;99.90
15481;DHT22;7842;50.904;6.670;2023-05-10T19:03:20;15.30;99.90
15481;DHT22;7842;50.904;6.670;2023-05-10T19:05:45;16.50;99.90
15481;DHT22;7842;50.904;6.670;2023-05-10T19:08:13;17.40;99.90
15481;DHT22;7842;50.904;6.670;2023-05-10T19:10:42;16.00;99.90
15481;DHT22;7842;50.904;6.670;2023-05-10T19:13:08;15.20;99.90
15481;DHT22;7842;50.904;6.670;2023-05-10T19:20:25;15.30;99.90
15481;DHT22;7842;50.904;6.670;2023-05-10T19:22:51;17.90;99.90
15481;DHT22;7842;50.904;6.670;2023-05-10T19:25:17;15.20;99.90
15481;DHT22;7842;50.904;6.670;2023-05-10T19:27:42;15.20;99.90
15481;DHT22;7842;50.904;6.670;2023-05-10T19:30:08;15.10;99.90
15481;DHT22;7842;50.904;6.670;2023-05-10T19:32:34;15.10;99.90
15481;DHT22;7842;50.904;6.670;2023-05-10T19:34:59;15.00;99.90
15481;DHT22;7842;50.904;6.670;2023-05-10T19:37:26;15.00;99.90
15481;DHT22;7842;50.904;6.670;2023-05-10T19:39:51;15.00;99.90
15481;DHT22;7842;50.904;6.670;2023-05-10T19:42:17;14.90;99.90
15481;DHT22;7842;50.904;6.670;2023-05-10T19:44:43;15.60;99.90
15481;DHT22;7842;50.904;6.670;2023-05-10T19:47:08;14.90;99.90
15481;DHT22;7842;50.904;6.670;2023-05-10T19:49:34;16.30;99.90
15481;DHT22;7842;50.904;6.670;2023-05-10T19:52:03;15.10;99.90
15481;DHT22;7842;50.904;6.670;2023-05-10T19:54:29;15.10;99.90
15481;DHT22;7842;50.904;6.670;2023-05-10T19:56:55;17.20;99.90
15481;DHT22;7842;50.904;6.670;2023-05-10T19:59:20;16.90;99.90
15481;DHT22;7842;50.904;6.670;2023-05-10T20:01:46;15.10;99.90
15481;DHT22;7842;50.904;6.670;2023-05-10T20:04:12;14.80;99.90
15481;DHT22;7842;50.904;6.670;2023-05-10T20:06:37;14.80;99.90
15481;DHT22;7842;50.904;6.670;2023-05-10T20:09:03;15.80;99.90
15481;DHT22;7842;50.904;6.670;2023-05-10T20:11:29;14.90;99.90
15481;DHT22;7842;50.904;6.670;2023-05-10T20:13:55;15.80;99.90
15481;DHT22;7842;50.904;6.670;2023-05-10T20:16:21;14.80;99.90
15481;DHT22;7842;50.904;6.670;2023-05-10T20:18:47;14.80;99.90
15481;DHT22;7842;50.904;6.670;2023-05-10T20:21:12;14.70;99.90
15481;DHT22;7842;50.904;6.670;2023-05-10T20:23:38;14.70;99.90
15481;DHT22;7842;50.904;6.670;2023-05-10T20:26:04;14.60;99.90
15481;DHT22;7842;50.904;6.670;2023-05-10T20:28:30;14.70;99.90
15481;DHT22;7842;50.904;6.670;2023-05-10T20:30:56;14.70;99.90
15481;DHT22;7842;50.904;6.670;2023-05-10T20:33:24;14.70;99.90
15481;DHT22;7842;50.904;6.670;2023-05-10T20:35:49;16.20;99.90
15481;DHT22;7842;50.904;6.670;2023-05-10T20:38:16;16.00;99.90
15481;DHT22;7842;50.904;6.670;2023-05-10T20:40:42;14.80;99.90
15481;DHT22;7842;50.904;6.670;2023-05-10T20:43:09;14.70;99.90
15481;DHT22;7842;50.904;6.670;2023-05-10T20:45:35;16.50;99.90
15481;DHT22;7842;50.904;6.670;2023-05-10T20:48:01;14.60;99.90
15481;DHT22;7842;50.904;6.670;2023-05-10T20:50:27;14.60;99.90
15481;DHT22;7842;50.904;6.670;2023-05-10T20:52:52;14.70;99.90
15481;DHT22;7842;50.904;6.670;2023-05-10T20:55:19;14.70;99.90
15481;DHT22;7842;50.904;6.670;2023-05-10T20:57:48;14.60;99.90
15481;DHT22;7842;50.904;6.670;2023-05-10T21:00:13;15.30;99.90
15481;DHT22;7842;50.904;6.670;2023-05-10T21:02:44;14.60;99.90
15481;DHT22;7842;50.904;6.670;2023-05-10T21:05:09;14.50;99.90
15481;DHT22;7842;50.904;6.670;2023-05-10T21:07:35;14.50;99.90
15481;DHT22;7842;50.904;6.670;2023-05-10T21:10:01;14.60;99.90
15481;DHT22;7842;50.904;6.670;2023-05-10T21:12:29;14.60;99.90
15481;DHT22;7842;50.904;6.670;2023-05-10T21:14:54;14.80;99.90
15481;DHT22;7842;50.904;6.670;2023-05-10T21:17:20;14.60;99.90
15481;DHT22;7842;50.904;6.670;2023-05-10T21:19:46;14.70;99.90
15481;DHT22;7842;50.904;6.670;2023-05-10T21:22:12;14.70;99.90
15481;DHT22;7842;50.904;6.670;2023-05-10T21:24:38;18.20;99.90
15481;DHT22;7842;50.904;6.670;2023-05-10T21:27:03;14.70;99.90
15481;DHT22;7842;50.904;6.670;2023-05-10T21:29:32;15.30;99.90
15481;DHT22;7842;50.904;6.670;2023-05-10T21:31:57;14.60;99.90
15481;DHT22;7842;50.904;6.670;2023-05-10T21:34:23;14.90;99.90
15481;DHT22;7842;50.904;6.670;2023-05-10T21:36:48;14.60;99.90
15481;DHT22;7842;50.904;6.670;2023-05-10T21:39:14;14.60;99.90
15481;DHT22;7842;50.904;6.670;2023-05-10T21:41:42;14.60;99.90
15481;DHT22;7842;50.904;6.670;2023-05-10T21:44:08;14.60;99.90
15481;DHT22;7842;50.904;6.670;2023-05-10T21:46:34;14.60;99.90
15481;DHT22;7842;50.904;6.670;2023-05-10T21:49:03;14.60;99.90
15481;DHT22;7842;50.904;6.670;2023-05-10T21:51:31;14.60;99.90
15481;DHT22;7842;50.904;6.670;2023-05-10T21:53:58;14.60;99.90
15481;DHT22;7842;50.904;6.670;2023-05-10T22:01:16;14.60;99.90
15481;DHT22;7842;50.904;6.670;2023-05-10T22:08:34;14.40;99.90
15481;DHT22;7842;50.904;6.670;2023-05-10T22:11:00;14.40;99.90
15481;DHT22;7842;50.904;6.670;2023-05-10T22:15:52;14.40;99.90
15481;DHT22;7842;50.904;6.670;2023-05-10T22:20:44;14.30;99.90
15481;DHT22;7842;50.904;6.670;2023-05-10T22:30:29;14.10;99.90
15481;DHT22;7842;50.904;6.670;2023-05-10T22:32:55;14.00;99.90
15481;DHT22;7842;50.904;6.670;2023-05-10T22:37:47;13.90;99.90
15481;DHT22;7842;50.904;6.670;2023-05-10T22:42:39;13.90;99.90
15481;DHT22;7842;50.904;6.670;2023-05-10T22:47:31;13.90;99.90
15481;DHT22;7842;50.904;6.670;2023-05-10T22:49:58;13.90;99.90
15481;DHT22;7842;50.904;6.670;2023-05-10T23:58:32;12.80;99.90
